sensor_id;sensor_type;location;lat;lon;timestamp;temperature;humidity
5274;DHT22;56254;50.956;7.010;2022-09-27T00:02:12;12.60;99.90
5274;DHT22;56254;50.956;7.010;2022-09-27T00:04:46;12.60;99.90
5274;DHT22;56254;50.956;7.010;2022-09-27T00:07:17;12.70;99.90
5274;DHT22;56254;50.956;7.010;2022-09-27T00:09:50;12.80;99.90
5274;DHT22;56254;50.956;7.010;2022-09-27T00:12:17;12.80;99.90
5274;DHT22;56254;50.956;7.010;2022-09-27T00:14:54;12.70;99.90
5274;DHT22;56254;50.956;7.010;2022-09-27T00:17:22;12.70;99.90
5274;DHT22;56254;50.956;7.010;2022-09-27T00:20:14;12.70;99.90
5274;DHT22;56254;50.956;7.010;2022-09-27T00:22:47;12.70;99.90
5274;DHT22;56254;50.956;7.010;2022-09-27T00:28:03;12.70;99.90
5274;DHT22;56254;50.956;7.010;2022-09-27T00:30:29;12.50;99.90
5274;DHT22;56254;50.956;7.010;2022-09-27T00:33:22;12.50;99.90
5274;DHT22;56254;50.956;7.010;2022-09-27T00:36:15;12.50;99.90
5274;DHT22;56254;50.956;7.010;2022-09-27T00:38:42;12.50;99.90
5274;DHT22;56254;50.956;7.010;2022-09-27T00:41:21;12.50;99.90
5274;DHT22;56254;50.956;7.010;2022-09-27T00:47:18;12.50;99.90
5274;DHT22;56254;50.956;7.010;2022-09-27T00:56:07;12.50;99.90
5274;DHT22;56254;50.956;7.010;2022-09-27T00:58:58;12.60;99.90
5274;DHT22;56254;50.956;7.010;2022-09-27T01:01:54;12.60;99.90
5274;DHT22;56254;50.956;7.010;2022-09-27T01:04:28;12.50;99.90
5274;DHT22;56254;50.956;7.010;2022-09-27T01:07:14;12.60;99.90
5274;DHT22;56254;50.956;7.010;2022-09-27T01:10:01;12.60;99.90
5274;DHT22;56254;50.956;7.010;2022-09-27T01:37:50;12.30;99.90
5274;DHT22;56254;50.956;7.010;2022-09-27T01:40:57;12.30;99.90
5274;DHT22;56254;50.956;7.010;2022-09-27T01:48:11;12.40;99.90
5274;DHT22;56254;50.956;7.010;2022-09-27T01:54:07;12.40;99.90
5274;DHT22;56254;50.956;7.010;2022-09-27T01:56:53;12.40;99.90
5274;DHT22;56254;50.956;7.010;2022-09-27T02:05:56;12.40;99.90
5274;DHT22;56254;50.956;7.010;2022-09-27T02:08:44;12.20;99.90
5274;DHT22;56254;50.956;7.010;2022-09-27T02:11:38;12.20;99.90
5274;DHT22;56254;50.956;7.010;2022-09-27T02:14:20;12.30;99.90
5274;DHT22;56254;50.956;7.010;2022-09-27T02:23:20;12.20;99.90
5274;DHT22;56254;50.956;7.010;2022-09-27T02:29:27;12.30;99.90
5274;DHT22;56254;50.956;7.010;2022-09-27T02:31:57;12.20;99.90
5274;DHT22;56254;50.956;7.010;2022-09-27T02:34:26;12.20;99.90
5274;DHT22;56254;50.956;7.010;2022-09-27T02:36:53;12.30;99.90
5274;DHT22;56254;50.956;7.010;2022-09-27T02:39:26;12.20;99.90
5274;DHT22;56254;50.956;7.010;2022-09-27T02:41:58;12.30;99.90
5274;DHT22;56254;50.956;7.010;2022-09-27T02:44:31;12.50;99.90
5274;DHT22;56254;50.956;7.010;2022-09-27T02:59:45;12.40;99.90
5274;DHT22;56254;50.956;7.010;2022-09-27T03:05:40;12.40;99.90
5274;DHT22;56254;50.956;7.010;2022-09-27T03:08:15;12.30;99.90
5274;DHT22;56254;50.956;7.010;2022-09-27T03:10:45;12.20;99.90
5274;DHT22;56254;50.956;7.010;2022-09-27T03:13:15;12.20;99.90
5274;DHT22;56254;50.956;7.010;2022-09-27T03:15:47;12.30;99.90
5274;DHT22;56254;50.956;7.010;2022-09-27T03:18:14;12.30;99.90
5274;DHT22;56254;50.956;7.010;2022-09-27T03:20:45;12.30;99.90
5274;DHT22;56254;50.956;7.010;2022-09-27T03:23:12;12.30;99.90
5274;DHT22;56254;50.956;7.010;2022-09-27T03:25:39;12.30;99.90
5274;DHT22;56254;50.956;7.010;2022-09-27T03:28:41;12.20;99.90
5274;DHT22;56254;50.956;7.010;2022-09-27T03:31:12;12.30;99.90
5274;DHT22;56254;50.956;7.010;2022-09-27T03:34:10;12.40;99.90
5274;DHT22;56254;50.956;7.010;2022-09-27T03:37:16;12.40;99.90
5274;DHT22;56254;50.956;7.010;2022-09-27T03:39:43;12.40;99.90
5274;DHT22;56254;50.956;7.010;2022-09-27T03:42:10;12.40;99.90
5274;DHT22;56254;50.956;7.010;2022-09-27T03:44:55;12.30;99.90
5274;DHT22;56254;50.956;7.010;2022-09-27T03:47:29;12.20;99.90
5274;DHT22;56254;50.956;7.010;2022-09-27T03:50:17;12.20;99.90
5274;DHT22;56254;50.956;7.010;2022-09-27T03:52:44;12.30;99.90
5274;DHT22;56254;50.956;7.010;2022-09-27T03:55:30;12.20;99.90
5274;DHT22;56254;50.956;7.010;2022-09-27T03:58:02;12.20;99.90
5274;DHT22;56254;50.956;7.010;2022-09-27T04:03:39;12.00;99.90
5274;DHT22;56254;50.956;7.010;2022-09-27T04:06:05;12.00;99.90
5274;DHT22;56254;50.956;7.010;2022-09-27T04:08:38;12.00;99.90
5274;DHT22;56254;50.956;7.010;2022-09-27T04:11:11;11.90;99.90
5274;DHT22;56254;50.956;7.010;2022-09-27T04:14:04;11.90;99.90
5274;DHT22;56254;50.956;7.010;2022-09-27T04:16:49;11.80;99.90
5274;DHT22;56254;50.956;7.010;2022-09-27T04:19:33;11.80;99.90
5274;DHT22;56254;50.956;7.010;2022-09-27T04:22:03;11.60;99.90
5274;DHT22;56254;50.956;7.010;2022-09-27T04:24:34;11.70;99.90
5274;DHT22;56254;50.956;7.010;2022-09-27T04:27:08;11.60;99.90
5274;DHT22;56254;50.956;7.010;2022-09-27T04:29:39;11.60;99.90
5274;DHT22;56254;50.956;7.010;2022-09-27T04:32:07;11.70;99.90
5274;DHT22;56254;50.956;7.010;2022-09-27T04:34:40;11.50;99.90
5274;DHT22;56254;50.956;7.010;2022-09-27T04:38:03;11.30;99.90
5274;DHT22;56254;50.956;7.010;2022-09-27T04:40:35;11.40;99.90
5274;DHT22;56254;50.956;7.010;2022-09-27T04:43:09;11.50;99.90
5274;DHT22;56254;50.956;7.010;2022-09-27T04:45:52;11.40;99.90
5274;DHT22;56254;50.956;7.010;2022-09-27T04:48:25;11.50;99.90
5274;DHT22;56254;50.956;7.010;2022-09-27T04:51:06;11.80;99.90
5274;DHT22;56254;50.956;7.010;2022-09-27T04:53:32;11.70;99.90
5274;DHT22;56254;50.956;7.010;2022-09-27T04:55:59;11.70;99.90
5274;DHT22;56254;50.956;7.010;2022-09-27T04:58:32;11.70;99.90
5274;DHT22;56254;50.956;7.010;2022-09-27T05:01:00;11.50;99.90
5274;DHT22;56254;50.956;7.010;2022-09-27T05:03:38;11.60;99.90
5274;DHT22;56254;50.956;7.010;2022-09-27T05:06:05;11.50;99.90
5274;DHT22;56254;50.956;7.010;2022-09-27T05:08:35;11.50;99.90
5274;DHT22;56254;50.956;7.010;2022-09-27T05:11:26;11.40;99.90
5274;DHT22;56254;50.956;7.010;2022-09-27T05:13:56;11.50;99.90
5274;DHT22;56254;50.956;7.010;2022-09-27T05:16:23;11.40;99.90
5274;DHT22;56254;50.956;7.010;2022-09-27T05:18:51;11.30;99.90
5274;DHT22;56254;50.956;7.010;2022-09-27T05:21:21;11.40;99.90
5274;DHT22;56254;50.956;7.010;2022-09-27T05:23:51;11.60;99.90
5274;DHT22;56254;50.956;7.010;2022-09-27T05:26:54;11.50;99.90
5274;DHT22;56254;50.956;7.010;2022-09-27T05:29:39;11.50;99.90
5274;DHT22;56254;50.956;7.010;2022-09-27T05:35:34;11.50;99.90
5274;DHT22;56254;50.956;7.010;2022-09-27T05:38:08;11.40;99.90
5274;DHT22;56254;50.956;7.010;2022-09-27T05:40:41;11.40;99.90
5274;DHT22;56254;50.956;7.010;2022-09-27T05:43:15;11.50;99.90
5274;DHT22;56254;50.956;7.010;2022-09-27T05:45:43;11.40;99.90
5274;DHT22;56254;50.956;7.010;2022-09-27T05:48:09;11.40;99.90
5274;DHT22;56254;50.956;7.010;2022-09-27T05:50:45;11.40;99.90
5274;DHT22;56254;50.956;7.010;2022-09-27T05:53:19;11.30;99.90
5274;DHT22;56254;50.956;7.010;2022-09-27T05:55:47;11.50;99.90
5274;DHT22;56254;50.956;7.010;2022-09-27T05:58:18;11.40;99.90
5274;DHT22;56254;50.956;7.010;2022-09-27T06:00:54;11.40;99.90
5274;DHT22;56254;50.956;7.010;2022-09-27T06:03:30;11.40;99.90
5274;DHT22;56254;50.956;7.010;2022-09-27T06:06:03;11.60;99.90
5274;DHT22;56254;50.956;7.010;2022-09-27T06:08:57;11.80;99.90
5274;DHT22;56254;50.956;7.010;2022-09-27T06:11:32;11.80;99.90
5274;DHT22;56254;50.956;7.010;2022-09-27T06:14:06;11.90;99.90
5274;DHT22;56254;50.956;7.010;2022-09-27T06:16:33;12.10;99.90
5274;DHT22;56254;50.956;7.010;2022-09-27T06:18:59;12.10;99.90
5274;DHT22;56254;50.956;7.010;2022-09-27T06:21:32;12.10;99.90
5274;DHT22;56254;50.956;7.010;2022-09-27T06:23:59;12.20;99.90
5274;DHT22;56254;50.956;7.010;2022-09-27T06:26:49;12.20;99.90
5274;DHT22;56254;50.956;7.010;2022-09-27T06:29:16;12.20;99.90
5274;DHT22;56254;50.956;7.010;2022-09-27T06:31:43;12.00;99.90
5274;DHT22;56254;50.956;7.010;2022-09-27T06:34:09;12.10;99.90
5274;DHT22;56254;50.956;7.010;2022-09-27T06:36:44;12.10;99.90
5274;DHT22;56254;50.956;7.010;2022-09-27T06:39:29;12.10;99.90
5274;DHT22;56254;50.956;7.010;2022-09-27T06:42:18;12.00;99.90
5274;DHT22;56254;50.956;7.010;2022-09-27T06:44:48;12.10;99.90
5274;DHT22;56254;50.956;7.010;2022-09-27T06:47:15;12.30;99.90
5274;DHT22;56254;50.956;7.010;2022-09-27T06:49:57;12.50;99.90
5274;DHT22;56254;50.956;7.010;2022-09-27T06:52:31;12.60;99.90
5274;DHT22;56254;50.956;7.010;2022-09-27T06:55:05;12.50;99.90
5274;DHT22;56254;50.956;7.010;2022-09-27T06:57:40;12.70;99.90
5274;DHT22;56254;50.956;7.010;2022-09-27T07:00:47;12.60;99.90
5274;DHT22;56254;50.956;7.010;2022-09-27T07:03:32;12.70;99.90
5274;DHT22;56254;50.956;7.010;2022-09-27T07:06:29;12.70;99.90
5274;DHT22;56254;50.956;7.010;2022-09-27T07:09:01;12.80;99.90
5274;DHT22;56254;50.956;7.010;2022-09-27T07:11:33;13.00;99.90
5274;DHT22;56254;50.956;7.010;2022-09-27T07:14:03;13.00;99.90
5274;DHT22;56254;50.956;7.010;2022-09-27T07:16:35;12.90;99.90
5274;DHT22;56254;50.956;7.010;2022-09-27T07:19:08;12.80;99.90
5274;DHT22;56254;50.956;7.010;2022-09-27T07:21:56;12.70;99.90
5274;DHT22;56254;50.956;7.010;2022-09-27T07:24:29;12.70;99.90
5274;DHT22;56254;50.956;7.010;2022-09-27T07:27:05;12.70;99.90
5274;DHT22;56254;50.956;7.010;2022-09-27T07:29:31;12.70;99.90
5274;DHT22;56254;50.956;7.010;2022-09-27T07:31:58;12.50;99.90
5274;DHT22;56254;50.956;7.010;2022-09-27T07:34:45;12.40;99.90
5274;DHT22;56254;50.956;7.010;2022-09-27T07:37:21;12.50;99.90
5274;DHT22;56254;50.956;7.010;2022-09-27T07:40:14;12.50;99.90
5274;DHT22;56254;50.956;7.010;2022-09-27T07:42:41;12.80;99.90
5274;DHT22;56254;50.956;7.010;2022-09-27T07:45:10;12.60;99.90
5274;DHT22;56254;50.956;7.010;2022-09-27T07:48:03;12.60;99.90
5274;DHT22;56254;50.956;7.010;2022-09-27T07:50:34;12.70;99.90
5274;DHT22;56254;50.956;7.010;2022-09-27T07:53:00;12.50;99.90
5274;DHT22;56254;50.956;7.010;2022-09-27T07:56:08;12.60;99.90
5274;DHT22;56254;50.956;7.010;2022-09-27T07:58:49;12.60;99.90
5274;DHT22;56254;50.956;7.010;2022-09-27T08:01:41;12.70;99.90
5274;DHT22;56254;50.956;7.010;2022-09-27T08:04:15;12.70;99.90
5274;DHT22;56254;50.956;7.010;2022-09-27T08:06:47;12.70;99.90
5274;DHT22;56254;50.956;7.010;2022-09-27T08:09:40;12.80;99.90
5274;DHT22;56254;50.956;7.010;2022-09-27T08:12:32;12.80;99.90
5274;DHT22;56254;50.956;7.010;2022-09-27T08:15:16;12.90;99.90
5274;DHT22;56254;50.956;7.010;2022-09-27T08:17:52;13.00;99.90
5274;DHT22;56254;50.956;7.010;2022-09-27T08:20:24;13.00;99.90
5274;DHT22;56254;50.956;7.010;2022-09-27T08:23:08;13.30;99.90
5274;DHT22;56254;50.956;7.010;2022-09-27T08:25:38;13.30;99.90
5274;DHT22;56254;50.956;7.010;2022-09-27T08:28:18;13.40;99.90
5274;DHT22;56254;50.956;7.010;2022-09-27T08:30:45;13.40;99.90
5274;DHT22;56254;50.956;7.010;2022-09-27T08:33:16;13.40;99.90
5274;DHT22;56254;50.956;7.010;2022-09-27T08:35:45;13.50;99.90
5274;DHT22;56254;50.956;7.010;2022-09-27T08:38:15;13.50;99.90
5274;DHT22;56254;50.956;7.010;2022-09-27T08:47:53;13.90;99.90
5274;DHT22;56254;50.956;7.010;2022-09-27T08:53:45;14.30;98.30
5274;DHT22;56254;50.956;7.010;2022-09-27T08:56:38;14.40;97.40
5274;DHT22;56254;50.956;7.010;2022-09-27T08:59:13;14.70;97.30
5274;DHT22;56254;50.956;7.010;2022-09-27T09:01:54;15.00;96.10
5274;DHT22;56254;50.956;7.010;2022-09-27T09:04:40;15.20;95.40
5274;DHT22;56254;50.956;7.010;2022-09-27T09:17:27;15.60;91.20
5274;DHT22;56254;50.956;7.010;2022-09-27T09:33:23;15.50;90.80
5274;DHT22;56254;50.956;7.010;2022-09-27T09:36:28;15.60;91.80
5274;DHT22;56254;50.956;7.010;2022-09-27T09:39:15;15.50;91.70
5274;DHT22;56254;50.956;7.010;2022-09-27T09:51:19;15.30;92.20
5274;DHT22;56254;50.956;7.010;2022-09-27T10:00:34;15.00;93.20
5274;DHT22;56254;50.956;7.010;2022-09-27T10:03:05;14.80;93.50
5274;DHT22;56254;50.956;7.010;2022-09-27T10:05:52;14.90;93.80
5274;DHT22;56254;50.956;7.010;2022-09-27T10:08:21;14.80;93.60
5274;DHT22;56254;50.956;7.010;2022-09-27T10:10:48;14.80;93.70
5274;DHT22;56254;50.956;7.010;2022-09-27T10:13:35;14.60;93.70
5274;DHT22;56254;50.956;7.010;2022-09-27T10:16:57;14.50;93.40
5274;DHT22;56254;50.956;7.010;2022-09-27T10:19:40;14.40;93.80
5274;DHT22;56254;50.956;7.010;2022-09-27T10:22:39;14.50;94.40
5274;DHT22;56254;50.956;7.010;2022-09-27T10:25:08;14.80;93.40
5274;DHT22;56254;50.956;7.010;2022-09-27T10:27:53;14.80;92.60
5274;DHT22;56254;50.956;7.010;2022-09-27T10:30:31;14.80;92.70
5274;DHT22;56254;50.956;7.010;2022-09-27T10:33:12;14.80;92.50
5274;DHT22;56254;50.956;7.010;2022-09-27T10:35:53;14.90;92.60
5274;DHT22;56254;50.956;7.010;2022-09-27T10:38:50;14.80;92.30
5274;DHT22;56254;50.956;7.010;2022-09-27T10:48:01;14.70;92.10
5274;DHT22;56254;50.956;7.010;2022-09-27T10:50:39;14.60;92.90
5274;DHT22;56254;50.956;7.010;2022-09-27T10:53:45;14.60;92.90
5274;DHT22;56254;50.956;7.010;2022-09-27T10:56:34;14.50;93.10
5274;DHT22;56254;50.956;7.010;2022-09-27T10:59:02;14.40;93.40
5274;DHT22;56254;50.956;7.010;2022-09-27T11:01:44;14.60;93.50
5274;DHT22;56254;50.956;7.010;2022-09-27T11:04:42;14.60;92.60
5274;DHT22;56254;50.956;7.010;2022-09-27T11:07:36;15.10;91.80
5274;DHT22;56254;50.956;7.010;2022-09-27T11:13:19;15.00;92.00
5274;DHT22;56254;50.956;7.010;2022-09-27T11:16:24;14.90;91.50
5274;DHT22;56254;50.956;7.010;2022-09-27T11:25:28;14.90;91.60
5274;DHT22;56254;50.956;7.010;2022-09-27T11:28:21;15.00;91.70
5274;DHT22;56254;50.956;7.010;2022-09-27T12:17:44;14.90;90.70
5274;DHT22;56254;50.956;7.010;2022-09-27T12:20:40;14.70;90.60
5274;DHT22;56254;50.956;7.010;2022-09-27T12:23:22;14.80;90.60
5274;DHT22;56254;50.956;7.010;2022-09-27T12:26:05;14.90;90.50
5274;DHT22;56254;50.956;7.010;2022-09-27T12:28:58;15.00;91.00
5274;DHT22;56254;50.956;7.010;2022-09-27T12:31:45;15.10;90.60
5274;DHT22;56254;50.956;7.010;2022-09-27T12:38:10;15.00;90.60
5274;DHT22;56254;50.956;7.010;2022-09-27T12:40:51;14.90;94.80
5274;DHT22;56254;50.956;7.010;2022-09-27T12:43:27;14.70;97.20
5274;DHT22;56254;50.956;7.010;2022-09-27T12:46:24;14.50;98.70
5274;DHT22;56254;50.956;7.010;2022-09-27T12:52:23;14.10;99.90
5274;DHT22;56254;50.956;7.010;2022-09-27T12:55:15;13.80;99.90
5274;DHT22;56254;50.956;7.010;2022-09-27T13:10:43;13.90;99.90
5274;DHT22;56254;50.956;7.010;2022-09-27T13:13:36;13.80;99.90
5274;DHT22;56254;50.956;7.010;2022-09-27T13:16:07;13.50;99.90
5274;DHT22;56254;50.956;7.010;2022-09-27T13:18:57;13.40;99.90
5274;DHT22;56254;50.956;7.010;2022-09-27T13:35:35;13.40;99.90
5274;DHT22;56254;50.956;7.010;2022-09-27T13:38:02;13.40;99.90
5274;DHT22;56254;50.956;7.010;2022-09-27T13:40:48;13.40;99.90
5274;DHT22;56254;50.956;7.010;2022-09-27T13:46:07;13.50;99.90
5274;DHT22;56254;50.956;7.010;2022-09-27T13:48:56;13.60;99.90
5274;DHT22;56254;50.956;7.010;2022-09-27T13:55:01;13.70;99.90
5274;DHT22;56254;50.956;7.010;2022-09-27T14:00:40;13.90;99.90
5274;DHT22;56254;50.956;7.010;2022-09-27T14:03:34;14.00;99.90
5274;DHT22;56254;50.956;7.010;2022-09-27T14:06:36;14.20;99.90
5274;DHT22;56254;50.956;7.010;2022-09-27T14:09:20;14.20;99.90
5274;DHT22;56254;50.956;7.010;2022-09-27T14:11:51;14.30;99.90
5274;DHT22;56254;50.956;7.010;2022-09-27T14:14:21;14.50;99.90
5274;DHT22;56254;50.956;7.010;2022-09-27T14:16:49;14.50;99.90
5274;DHT22;56254;50.956;7.010;2022-09-27T14:19:20;14.70;99.90
5274;DHT22;56254;50.956;7.010;2022-09-27T14:21:49;14.90;99.90
5274;DHT22;56254;50.956;7.010;2022-09-27T14:29:58;14.80;99.90
5274;DHT22;56254;50.956;7.010;2022-09-27T14:32:29;14.80;98.60
5274;DHT22;56254;50.956;7.010;2022-09-27T14:35:22;14.70;98.80
5274;DHT22;56254;50.956;7.010;2022-09-27T14:38:13;14.70;98.40
5274;DHT22;56254;50.956;7.010;2022-09-27T14:43:26;14.90;98.80
5274;DHT22;56254;50.956;7.010;2022-09-27T14:45:57;14.80;99.90
5274;DHT22;56254;50.956;7.010;2022-09-27T14:48:32;14.80;99.90
5274;DHT22;56254;50.956;7.010;2022-09-27T14:51:30;14.70;99.10
5274;DHT22;56254;50.956;7.010;2022-09-27T14:53:58;14.50;98.10
5274;DHT22;56254;50.956;7.010;2022-09-27T14:56:30;14.70;98.40
5274;DHT22;56254;50.956;7.010;2022-09-27T14:59:09;14.70;97.20
5274;DHT22;56254;50.956;7.010;2022-09-27T15:01:38;14.50;97.50
5274;DHT22;56254;50.956;7.010;2022-09-27T15:04:14;14.50;96.50
5274;DHT22;56254;50.956;7.010;2022-09-27T15:06:39;14.50;97.80
5274;DHT22;56254;50.956;7.010;2022-09-27T15:09:06;14.60;96.40
5274;DHT22;56254;50.956;7.010;2022-09-27T15:11:34;14.70;97.20
5274;DHT22;56254;50.956;7.010;2022-09-27T15:14:03;14.80;97.30
5274;DHT22;56254;50.956;7.010;2022-09-27T15:16:30;14.70;97.10
5274;DHT22;56254;50.956;7.010;2022-09-27T15:22:30;14.40;97.70
5274;DHT22;56254;50.956;7.010;2022-09-27T15:25:14;14.40;98.50
5274;DHT22;56254;50.956;7.010;2022-09-27T15:28:00;14.20;98.60
5274;DHT22;56254;50.956;7.010;2022-09-27T15:30:34;14.10;99.90
5274;DHT22;56254;50.956;7.010;2022-09-27T15:33:06;13.90;99.90
5274;DHT22;56254;50.956;7.010;2022-09-27T15:35:47;13.90;99.90
5274;DHT22;56254;50.956;7.010;2022-09-27T15:38:46;13.80;99.90
5274;DHT22;56254;50.956;7.010;2022-09-27T15:41:19;13.80;99.90
5274;DHT22;56254;50.956;7.010;2022-09-27T15:43:57;13.80;99.30
5274;DHT22;56254;50.956;7.010;2022-09-27T15:46:35;13.70;98.10
5274;DHT22;56254;50.956;7.010;2022-09-27T15:49:30;13.50;97.40
5274;DHT22;56254;50.956;7.010;2022-09-27T15:52:01;13.40;96.80
5274;DHT22;56254;50.956;7.010;2022-09-27T15:55:00;13.30;97.50
5274;DHT22;56254;50.956;7.010;2022-09-27T15:57:28;13.30;96.70
5274;DHT22;56254;50.956;7.010;2022-09-27T15:59:55;13.30;96.10
5274;DHT22;56254;50.956;7.010;2022-09-27T16:02:27;13.40;96.30
5274;DHT22;56254;50.956;7.010;2022-09-27T16:05:08;13.20;96.00
5274;DHT22;56254;50.956;7.010;2022-09-27T16:08:02;13.20;96.50
5274;DHT22;56254;50.956;7.010;2022-09-27T16:10:51;13.20;96.20
5274;DHT22;56254;50.956;7.010;2022-09-27T16:13:18;13.20;96.60
5274;DHT22;56254;50.956;7.010;2022-09-27T16:15:47;13.30;96.20
5274;DHT22;56254;50.956;7.010;2022-09-27T16:18:24;13.20;95.70
5274;DHT22;56254;50.956;7.010;2022-09-27T16:20:49;13.20;95.80
5274;DHT22;56254;50.956;7.010;2022-09-27T16:23:18;13.10;95.10
5274;DHT22;56254;50.956;7.010;2022-09-27T16:25:52;13.00;95.30
5274;DHT22;56254;50.956;7.010;2022-09-27T16:28:17;13.00;95.60
5274;DHT22;56254;50.956;7.010;2022-09-27T16:30:43;13.00;95.60
5274;DHT22;56254;50.956;7.010;2022-09-27T16:33:09;12.90;96.50
5274;DHT22;56254;50.956;7.010;2022-09-27T16:35:38;13.00;96.20
5274;DHT22;56254;50.956;7.010;2022-09-27T16:38:06;13.00;96.20
5274;DHT22;56254;50.956;7.010;2022-09-27T16:40:53;13.10;95.70
5274;DHT22;56254;50.956;7.010;2022-09-27T16:43:26;12.90;96.10
5274;DHT22;56254;50.956;7.010;2022-09-27T16:45:54;13.00;96.00
5274;DHT22;56254;50.956;7.010;2022-09-27T16:48:25;13.10;95.80
5274;DHT22;56254;50.956;7.010;2022-09-27T16:50:51;13.10;95.60
5274;DHT22;56254;50.956;7.010;2022-09-27T16:53:45;12.90;96.20
5274;DHT22;56254;50.956;7.010;2022-09-27T16:56:11;13.00;96.70
5274;DHT22;56254;50.956;7.010;2022-09-27T16:58:44;13.00;96.00
5274;DHT22;56254;50.956;7.010;2022-09-27T17:01:10;13.00;95.60
5274;DHT22;56254;50.956;7.010;2022-09-27T17:03:36;13.00;95.80
5274;DHT22;56254;50.956;7.010;2022-09-27T17:06:10;12.90;96.70
5274;DHT22;56254;50.956;7.010;2022-09-27T17:08:43;13.00;97.00
5274;DHT22;56254;50.956;7.010;2022-09-27T17:11:37;13.20;97.00
5274;DHT22;56254;50.956;7.010;2022-09-27T17:14:04;13.10;98.50
5274;DHT22;56254;50.956;7.010;2022-09-27T17:16:32;13.00;97.90
5274;DHT22;56254;50.956;7.010;2022-09-27T17:19:07;13.10;98.50
5274;DHT22;56254;50.956;7.010;2022-09-27T17:21:39;13.10;97.50
5274;DHT22;56254;50.956;7.010;2022-09-27T17:24:06;13.10;96.80
5274;DHT22;56254;50.956;7.010;2022-09-27T17:26:50;13.00;96.90
5274;DHT22;56254;50.956;7.010;2022-09-27T17:29:18;13.00;97.50
5274;DHT22;56254;50.956;7.010;2022-09-27T17:31:43;12.90;97.20
5274;DHT22;56254;50.956;7.010;2022-09-27T17:34:15;12.70;97.60
5274;DHT22;56254;50.956;7.010;2022-09-27T17:36:43;12.70;98.10
5274;DHT22;56254;50.956;7.010;2022-09-27T17:39:19;12.80;97.60
5274;DHT22;56254;50.956;7.010;2022-09-27T17:41:47;12.80;98.20
5274;DHT22;56254;50.956;7.010;2022-09-27T17:44:14;12.70;98.20
5274;DHT22;56254;50.956;7.010;2022-09-27T17:46:41;12.70;98.60
5274;DHT22;56254;50.956;7.010;2022-09-27T17:49:11;12.50;99.90
5274;DHT22;56254;50.956;7.010;2022-09-27T17:51:56;12.70;99.60
5274;DHT22;56254;50.956;7.010;2022-09-27T17:54:23;12.90;99.80
5274;DHT22;56254;50.956;7.010;2022-09-27T17:56:56;12.90;99.70
5274;DHT22;56254;50.956;7.010;2022-09-27T17:59:24;12.90;98.80
5274;DHT22;56254;50.956;7.010;2022-09-27T18:01:50;13.00;99.50
5274;DHT22;56254;50.956;7.010;2022-09-27T18:04:22;13.00;99.10
5274;DHT22;56254;50.956;7.010;2022-09-27T18:06:47;12.90;99.50
5274;DHT22;56254;50.956;7.010;2022-09-27T18:09:15;12.90;98.90
5274;DHT22;56254;50.956;7.010;2022-09-27T18:11:47;12.90;99.90
5274;DHT22;56254;50.956;7.010;2022-09-27T18:14:14;12.90;99.90
5274;DHT22;56254;50.956;7.010;2022-09-27T18:16:52;12.90;99.90
5274;DHT22;56254;50.956;7.010;2022-09-27T18:20:04;12.90;99.90
5274;DHT22;56254;50.956;7.010;2022-09-27T18:22:38;12.90;99.90
5274;DHT22;56254;50.956;7.010;2022-09-27T18:25:11;12.80;99.90
5274;DHT22;56254;50.956;7.010;2022-09-27T18:27:43;12.90;99.90
5274;DHT22;56254;50.956;7.010;2022-09-27T18:30:17;12.80;99.90
5274;DHT22;56254;50.956;7.010;2022-09-27T18:32:45;12.80;99.90
5274;DHT22;56254;50.956;7.010;2022-09-27T18:35:29;12.70;99.90
5274;DHT22;56254;50.956;7.010;2022-09-27T18:37:56;12.60;99.90
5274;DHT22;56254;50.956;7.010;2022-09-27T18:40:48;12.60;99.90
5274;DHT22;56254;50.956;7.010;2022-09-27T18:43:19;12.50;99.90
5274;DHT22;56254;50.956;7.010;2022-09-27T18:45:46;12.60;99.90
5274;DHT22;56254;50.956;7.010;2022-09-27T18:48:12;12.60;99.90
5274;DHT22;56254;50.956;7.010;2022-09-27T18:50:38;12.60;99.90
5274;DHT22;56254;50.956;7.010;2022-09-27T18:53:03;12.60;99.90
5274;DHT22;56254;50.956;7.010;2022-09-27T18:55:29;12.60;99.90
5274;DHT22;56254;50.956;7.010;2022-09-27T18:57:55;12.60;99.90
5274;DHT22;56254;50.956;7.010;2022-09-27T19:00:22;12.40;99.90
5274;DHT22;56254;50.956;7.010;2022-09-27T19:02:50;12.40;99.90
5274;DHT22;56254;50.956;7.010;2022-09-27T19:05:17;12.40;99.90
5274;DHT22;56254;50.956;7.010;2022-09-27T19:07:44;12.20;99.90
5274;DHT22;56254;50.956;7.010;2022-09-27T19:10:10;12.00;99.90
5274;DHT22;56254;50.956;7.010;2022-09-27T19:12:37;12.20;99.90
5274;DHT22;56254;50.956;7.010;2022-09-27T19:15:04;12.20;99.90
5274;DHT22;56254;50.956;7.010;2022-09-27T19:17:30;12.20;99.90
5274;DHT22;56254;50.956;7.010;2022-09-27T19:19:56;12.20;99.90
5274;DHT22;56254;50.956;7.010;2022-09-27T19:22:22;12.20;99.90
5274;DHT22;56254;50.956;7.010;2022-09-27T19:24:48;12.10;99.90
5274;DHT22;56254;50.956;7.010;2022-09-27T19:27:14;12.10;99.90
5274;DHT22;56254;50.956;7.010;2022-09-27T19:29:42;12.10;99.90
5274;DHT22;56254;50.956;7.010;2022-09-27T19:32:09;12.00;99.90
5274;DHT22;56254;50.956;7.010;2022-09-27T19:34:41;12.10;99.90
5274;DHT22;56254;50.956;7.010;2022-09-27T19:37:06;12.10;99.90
5274;DHT22;56254;50.956;7.010;2022-09-27T19:39:32;12.10;99.90
5274;DHT22;56254;50.956;7.010;2022-09-27T19:41:58;12.10;99.90
5274;DHT22;56254;50.956;7.010;2022-09-27T19:44:24;12.10;99.90
5274;DHT22;56254;50.956;7.010;2022-09-27T19:46:50;12.20;99.90
5274;DHT22;56254;50.956;7.010;2022-09-27T19:49:17;12.10;99.90
5274;DHT22;56254;50.956;7.010;2022-09-27T19:51:43;11.90;99.90
5274;DHT22;56254;50.956;7.010;2022-09-27T19:54:11;12.00;99.90
5274;DHT22;56254;50.956;7.010;2022-09-27T19:56:41;11.90;99.90
5274;DHT22;56254;50.956;7.010;2022-09-27T19:59:33;12.00;99.90
5274;DHT22;56254;50.956;7.010;2022-09-27T20:02:07;12.00;99.90
5274;DHT22;56254;50.956;7.010;2022-09-27T20:04:32;12.00;99.90
5274;DHT22;56254;50.956;7.010;2022-09-27T20:07:04;11.90;99.90
5274;DHT22;56254;50.956;7.010;2022-09-27T20:09:30;11.80;99.90
5274;DHT22;56254;50.956;7.010;2022-09-27T20:11:55;11.80;99.90
5274;DHT22;56254;50.956;7.010;2022-09-27T20:14:21;11.70;99.90
5274;DHT22;56254;50.956;7.010;2022-09-27T20:16:48;11.80;99.90
5274;DHT22;56254;50.956;7.010;2022-09-27T20:19:15;11.80;99.90
5274;DHT22;56254;50.956;7.010;2022-09-27T20:21:40;11.80;99.90
5274;DHT22;56254;50.956;7.010;2022-09-27T20:24:06;11.80;99.90
5274;DHT22;56254;50.956;7.010;2022-09-27T20:26:34;11.90;99.90
5274;DHT22;56254;50.956;7.010;2022-09-27T20:29:02;11.80;99.90
5274;DHT22;56254;50.956;7.010;2022-09-27T20:31:30;11.70;99.90
5274;DHT22;56254;50.956;7.010;2022-09-27T20:34:04;11.70;99.90
5274;DHT22;56254;50.956;7.010;2022-09-27T20:36:35;11.90;99.90
5274;DHT22;56254;50.956;7.010;2022-09-27T20:39:07;11.90;99.90
5274;DHT22;56254;50.956;7.010;2022-09-27T20:41:51;11.90;99.90
5274;DHT22;56254;50.956;7.010;2022-09-27T20:44:44;11.80;99.90
5274;DHT22;56254;50.956;7.010;2022-09-27T20:47:13;11.80;99.90
5274;DHT22;56254;50.956;7.010;2022-09-27T20:50:17;12.00;99.90
5274;DHT22;56254;50.956;7.010;2022-09-27T20:52:55;12.20;99.90
5274;DHT22;56254;50.956;7.010;2022-09-27T20:55:49;12.30;99.90